Time;durP1;ratioP1;P1;durP2;ratioP2;P2;SDS_P1;SDS_P2;PMS_P1;PMS_P2;Temp;Humidity;BMP_temperature;BMP_pressure;BME280_temperature;BME280_humidity;BME280_pressure;Samples;Min_cycle;Max_cycle;Signal;HPM_P1;HPM_P2
2023/06/05 00:00:48;;;;;;;9.20;3.05;;;;;;;14.59;100.00;101735.66;5007583;28;20089;-77
2023/06/05 00:03:17;;;;;;;12.20;3.35;;;;;;;14.54;100.00;101727.72;5015766;28;20056;-73
2023/06/05 00:05:45;;;;;;;9.40;2.50;;;;;;;14.50;100.00;101726.97;5012195;28;20466;-74
2023/06/05 00:08:11;;;;;;;8.18;3.10;;;;;;;14.46;100.00;101732.63;5014446;28;20155;-72
2023/06/05 00:10:38;;;;;;;5.53;3.00;;;;;;;14.42;100.00;101733.88;5006801;28;20143;-76
2023/06/05 00:13:05;;;;;;;9.05;2.90;;;;;;;14.38;100.00;101735.91;5022877;28;20087;-74
2023/06/05 00:15:35;;;;;;;8.20;2.72;;;;;;;14.33;100.00;101734.38;5009679;28;20056;-74
2023/06/05 00:18:03;;;;;;;6.88;2.50;;;;;;;14.26;100.00;101739.25;5008810;28;20849;-74
2023/06/05 00:20:30;;;;;;;9.55;3.00;;;;;;;14.15;100.00;101735.78;5013724;28;20463;-70
2023/06/05 00:22:57;;;;;;;7.22;2.80;;;;;;;14.12;100.00;101739.44;5006181;28;20061;-73
2023/06/05 00:25:24;;;;;;;5.95;2.78;;;;;;;14.09;100.00;101741.06;5036506;28;20587;-74
2023/06/05 00:27:50;;;;;;;10.82;2.88;;;;;;;14.04;100.00;101735.13;5014672;28;20073;-73
2023/06/05 00:30:17;;;;;;;8.30;3.30;;;;;;;14.02;100.00;101743.13;5006728;28;20116;-72
2023/06/05 00:32:43;;;;;;;6.60;2.47;;;;;;;13.95;100.00;101732.84;5007536;28;20474;-75
2023/06/05 00:35:10;;;;;;;10.77;3.50;;;;;;;13.95;100.00;101737.63;5013918;28;20137;-71
2023/06/05 00:37:37;;;;;;;11.13;2.80;;;;;;;13.89;100.00;101730.91;5013676;28;20046;-70
2023/06/05 00:40:06;;;;;;;6.50;2.80;;;;;;;13.88;100.00;101740.50;5011402;28;20130;-74
2023/06/05 00:42:33;;;;;;;10.75;3.30;;;;;;;13.85;100.00;101732.94;5008171;28;20140;-74
2023/06/05 00:44:59;;;;;;;8.38;2.70;;;;;;;13.80;100.00;101738.97;5013874;28;20144;-74
2023/06/05 00:47:26;;;;;;;11.30;4.03;;;;;;;13.75;100.00;101750.63;5007111;28;20050;-75
2023/06/05 00:49:53;;;;;;;7.53;2.80;;;;;;;13.73;100.00;101739.03;5009141;28;20054;-75
2023/06/05 00:52:20;;;;;;;8.18;2.83;;;;;;;13.66;100.00;101739.13;5003058;28;20054;-70
2023/06/05 00:54:47;;;;;;;8.38;3.17;;;;;;;13.64;100.00;101738.75;5007144;28;20101;-72
2023/06/05 00:57:14;;;;;;;9.20;2.80;;;;;;;13.56;100.00;101740.81;5015246;28;20642;-72
2023/06/05 00:59:44;;;;;;;8.65;2.78;;;;;;;13.51;100.00;101744.06;5013375;28;20053;-71
2023/06/05 01:02:14;;;;;;;10.43;2.92;;;;;;;13.47;100.00;101743.28;5011011;28;20103;-70
2023/06/05 01:04:46;;;;;;;10.25;3.50;;;;;;;13.45;100.00;101747.69;5004961;28;20050;-72
2023/06/05 01:07:16;;;;;;;10.68;3.45;;;;;;;13.39;100.00;101740.94;5003590;28;20042;-72
2023/06/05 01:09:44;;;;;;;8.35;3.13;;;;;;;13.33;100.00;101740.59;5005992;28;20077;-72
2023/06/05 01:12:18;;;;;;;8.88;3.20;;;;;;;13.21;100.00;101746.69;5013687;28;20056;-73
2023/06/05 01:14:48;;;;;;;6.78;3.55;;;;;;;13.15;100.00;101745.53;5010789;28;20077;-71
2023/06/05 01:17:20;;;;;;;9.25;3.40;;;;;;;13.16;100.00;101738.72;5004185;28;20045;-72
2023/06/05 01:19:49;;;;;;;7.78;2.92;;;;;;;13.12;100.00;101737.16;5022820;28;20064;-72
2023/06/05 01:22:16;;;;;;;11.18;3.33;;;;;;;13.09;100.00;101732.41;5007418;28;20580;-71
2023/06/05 01:24:42;;;;;;;8.80;2.83;;;;;;;13.03;100.00;101742.44;5006778;28;20056;-73
2023/06/05 01:27:20;;;;;;;9.45;3.00;;;;;;;12.97;100.00;101741.28;5004639;28;20050;-74
2023/06/05 01:29:56;;;;;;;9.38;3.30;;;;;;;12.95;100.00;101740.88;5022626;28;20734;-72
2023/06/05 01:32:46;;;;;;;8.18;3.55;;;;;;;12.90;100.00;101735.75;5002111;28;20093;-68
2023/06/05 01:35:18;;;;;;;7.00;3.17;;;;;;;12.93;100.00;101740.50;5020834;28;20161;-74
2023/06/05 01:37:48;;;;;;;10.23;3.08;;;;;;;12.83;100.00;101736.56;5011098;28;20500;-73
2023/06/05 01:40:17;;;;;;;11.02;3.33;;;;;;;12.77;100.00;101738.22;5026681;28;20512;-72
2023/06/05 01:42:45;;;;;;;9.98;3.80;;;;;;;12.70;100.00;101741.06;5019113;28;20081;-72
2023/06/05 01:45:14;;;;;;;12.38;3.53;;;;;;;12.71;100.00;101733.47;5010193;28;20054;-72
2023/06/05 01:47:41;;;;;;;9.15;3.90;;;;;;;12.63;100.00;101729.13;5007704;28;20813;-69
2023/06/05 01:50:12;;;;;;;10.90;3.50;;;;;;;12.64;100.00;101739.09;5013723;28;20056;-74
2023/06/05 01:52:41;;;;;;;9.13;3.33;;;;;;;12.54;100.00;101735.16;5012995;28;20499;-73
2023/06/05 01:55:14;;;;;;;12.50;3.95;;;;;;;12.52;100.00;101736.78;5024324;28;20053;-68
2023/06/05 01:57:41;;;;;;;9.95;3.83;;;;;;;12.45;100.00;101738.41;5022860;28;20046;-71
2023/06/05 02:00:12;;;;;;;10.18;3.50;;;;;;;12.40;100.00;101729.66;5014265;28;20081;-76
2023/06/05 02:02:42;;;;;;;9.73;3.65;;;;;;;12.41;100.00;101731.25;5015898;28;20163;-73
2023/06/05 02:05:10;;;;;;;13.15;4.18;;;;;;;12.36;100.00;101723.31;5028689;28;20191;-73
2023/06/05 02:07:42;;;;;;;8.50;3.58;;;;;;;12.33;100.00;101722.06;5014489;28;20061;-73
2023/06/05 02:10:09;;;;;;;10.50;3.80;;;;;;;12.28;100.00;101722.50;5011745;28;20416;-74
2023/06/05 02:12:41;;;;;;;14.07;3.95;;;;;;;12.28;100.00;101727.28;5015551;28;20077;-70
2023/06/05 02:15:12;;;;;;;8.95;3.70;;;;;;;12.26;100.00;101719.31;5018704;28;20107;-73
2023/06/05 02:17:44;;;;;;;9.48;3.88;;;;;;;12.17;100.00;101713.41;5010765;28;20060;-73
2023/06/05 02:20:12;;;;;;;12.48;3.90;;;;;;;12.17;100.00;101707.03;5018238;28;20569;-71
2023/06/05 02:22:44;;;;;;;10.23;4.15;;;;;;;12.14;100.00;101705.84;5024877;28;20069;-72
2023/06/05 02:25:11;;;;;;;13.55;4.20;;;;;;;12.08;100.00;101707.47;5018986;28;20119;-72
2023/06/05 02:27:38;;;;;;;10.65;4.00;;;;;;;12.06;100.00;101709.06;5009836;28;20045;-73
2023/06/05 02:30:06;;;;;;;10.18;3.92;;;;;;;12.00;100.00;101705.09;5009495;28;20119;-72
2023/06/05 02:32:33;;;;;;;8.60;4.20;;;;;;;11.98;100.00;101708.28;5024757;28;20164;-73
2023/06/05 02:34:59;;;;;;;16.27;5.05;;;;;;;11.96;100.00;101715.47;5009483;28;20054;-73
2023/06/05 02:37:27;;;;;;;14.93;4.60;;;;;;;11.89;100.00;101707.13;5017827;28;20041;-72
2023/06/05 02:39:54;;;;;;;7.78;3.70;;;;;;;11.83;100.00;101706.75;5017525;28;20057;-74
2023/06/05 02:42:20;;;;;;;11.23;4.03;;;;;;;11.82;100.00;101707.94;5015346;28;20132;-73
2023/06/05 02:44:48;;;;;;;11.60;4.32;;;;;;;11.79;100.00;101707.97;5020858;28;20096;-71
2023/06/05 02:47:15;;;;;;;12.52;4.05;;;;;;;11.73;100.00;101715.94;5017870;28;20050;-74
2023/06/05 02:49:41;;;;;;;10.60;4.05;;;;;;;11.69;100.00;101714.34;5008632;28;20108;-73
2023/06/05 02:52:08;;;;;;;12.27;4.15;;;;;;;11.63;100.00;101708.41;5018341;28;20754;-71
2023/06/05 02:54:34;;;;;;;9.30;4.15;;;;;;;11.67;100.00;101706.41;5008145;28;20085;-73
2023/06/05 02:57:01;;;;;;;10.07;4.30;;;;;;;11.67;100.00;101703.59;5007376;28;20057;-70
2023/06/05 02:59:27;;;;;;;10.02;3.92;;;;;;;11.65;100.00;101700.41;5008106;28;20081;-74
2023/06/05 03:01:54;;;;;;;15.07;6.28;;;;;;;11.63;100.00;101700.03;5017303;28;20157;-75
2023/06/05 03:04:21;;;;;;;9.10;3.95;;;;;;;11.54;100.00;101696.88;5008473;28;20566;-72
2023/06/05 03:06:48;;;;;;;10.23;4.22;;;;;;;11.59;100.00;101702.03;5016238;28;20049;-74
2023/06/05 03:09:15;;;;;;;11.43;4.45;;;;;;;11.56;100.00;101699.25;5019747;28;20053;-74
2023/06/05 03:11:41;;;;;;;14.10;4.65;;;;;;;11.48;100.00;101695.66;5008422;28;20042;-72
2023/06/05 03:14:08;;;;;;;10.65;4.63;;;;;;;11.42;100.00;101691.72;5009032;28;20085;-72
2023/06/05 03:16:41;;;;;;;12.98;4.10;;;;;;;11.44;100.00;101683.75;5014157;28;20073;-72
2023/06/05 03:19:08;;;;;;;18.92;5.47;;;;;;;11.36;100.00;101679.41;5008974;28;20188;-70
2023/06/05 03:21:39;;;;;;;14.82;4.82;;;;;;;11.35;100.00;101691.72;5017104;28;20042;-71
2023/06/05 03:24:08;;;;;;;11.55;4.40;;;;;;;11.30;100.00;101683.78;5018873;28;20045;-72
2023/06/05 03:26:35;;;;;;;13.35;4.82;;;;;;;11.27;100.00;101683.75;5020021;28;20100;-72
2023/06/05 03:29:01;;;;;;;15.23;5.05;;;;;;;11.25;100.00;101684.19;5009468;28;20108;-73
2023/06/05 03:31:28;;;;;;;13.27;4.78;;;;;;;11.20;100.00;101680.97;5015604;28;20136;-72
2023/06/05 03:33:54;;;;;;;10.90;4.70;;;;;;;11.19;100.00;101691.31;5016895;28;20099;-76
2023/06/05 03:36:21;;;;;;;11.45;4.68;;;;;;;11.14;100.00;101686.13;5015926;28;20050;-74
2023/06/05 03:38:47;;;;;;;12.13;5.50;;;;;;;11.11;100.00;101692.50;5017124;28;20484;-75
2023/06/05 03:41:14;;;;;;;14.10;5.70;;;;;;;11.09;100.00;101694.88;5008571;28;20086;-73
2023/06/05 03:43:41;;;;;;;15.35;5.80;;;;;;;11.05;100.00;101699.66;5023800;28;20224;-72
2023/06/05 03:46:07;;;;;;;17.52;5.82;;;;;;;11.03;100.00;101687.31;5020778;28;20136;-73
2023/06/05 03:48:34;;;;;;;11.63;5.15;;;;;;;11.02;100.00;101685.75;5010083;28;20054;-72
2023/06/05 03:51:01;;;;;;;12.90;5.13;;;;;;;11.00;100.00;101686.13;5019392;28;20049;-73
2023/06/05 03:53:30;;;;;;;13.52;5.10;;;;;;;11.00;100.00;101690.94;5019746;28;20084;-74
2023/06/05 03:55:56;;;;;;;15.30;5.57;;;;;;;11.00;100.00;101693.72;5019919;28;20124;-74
2023/06/05 03:58:26;;;;;;;14.88;5.63;;;;;;;11.01;100.00;101693.28;5018547;28;20055;-75
2023/06/05 04:00:53;;;;;;;17.95;5.68;;;;;;;11.00;100.00;101690.94;5027961;28;20139;-71
2023/06/05 04:03:20;;;;;;;16.27;5.53;;;;;;;11.02;100.00;101692.09;5019743;28;20104;-74
2023/06/05 04:05:47;;;;;;;17.95;7.95;;;;;;;11.02;100.00;101706.03;5015473;28;20068;-72
2023/06/05 04:08:14;;;;;;;13.07;6.13;;;;;;;11.05;100.00;101699.66;5007109;28;20042;-73
2023/06/05 04:10:40;;;;;;;13.70;5.50;;;;;;;11.05;100.00;101704.44;5022670;28;20081;-72
2023/06/05 04:13:07;;;;;;;15.32;5.90;;;;;;;11.02;100.00;101706.03;5017901;28;20092;-74
2023/06/05 04:15:34;;;;;;;13.27;5.35;;;;;;;11.03;100.00;101702.03;5021924;28;20046;-74
2023/06/05 04:18:01;;;;;;;13.45;5.25;;;;;;;11.05;100.00;101705.22;5010035;28;20045;-72
2023/06/05 04:20:28;;;;;;;13.73;5.65;;;;;;;11.07;100.00;101708.41;5013178;28;20041;-76
2023/06/05 04:22:54;;;;;;;16.00;6.40;;;;;;;11.10;100.00;101702.03;5016931;28;20111;-72
2023/06/05 04:25:21;;;;;;;15.60;5.57;;;;;;;11.08;100.00;101704.44;5028707;28;20045;-72
2023/06/05 04:27:50;;;;;;;16.77;5.90;;;;;;;11.05;100.00;101701.66;5025867;28;20069;-71
2023/06/05 04:30:17;;;;;;;13.35;5.65;;;;;;;11.08;100.00;101707.22;5000343;28;20037;-72
2023/06/05 04:32:52;;;;;;;13.57;5.20;;;;;;;11.10;100.00;101704.81;5007686;28;20054;-72
2023/06/05 04:35:21;;;;;;;15.55;6.25;;;;;;;11.13;100.00;101706.81;5002384;28;20050;-72
2023/06/05 04:37:47;;;;;;;14.13;5.85;;;;;;;11.16;100.00;101706.03;5012244;28;20050;-72
2023/06/05 04:40:18;;;;;;;14.90;5.82;;;;;;;11.16;100.00;101706.03;5024966;28;20128;-73
2023/06/05 04:42:44;;;;;;;16.80;5.88;;;;;;;11.18;100.00;101706.41;5001888;28;20046;-72
2023/06/05 04:45:11;;;;;;;19.20;5.65;;;;;;;11.22;100.00;101710.03;5007377;28;20136;-71
2023/06/05 04:47:37;;;;;;;15.00;6.25;;;;;;;11.25;100.00;101703.69;5009856;28;20848;-72
2023/06/05 04:50:06;;;;;;;13.93;6.53;;;;;;;11.29;100.00;101704.47;5004859;28;20082;-72
2023/06/05 04:52:35;;;;;;;16.08;6.25;;;;;;;11.29;100.00;101704.47;5014269;28;20046;-72
2023/06/05 04:55:02;;;;;;;15.98;5.50;;;;;;;11.33;100.00;101698.88;5017018;28;20407;-71
2023/06/05 04:57:29;;;;;;;13.90;5.57;;;;;;;11.39;100.00;101700.88;5007398;28;20617;-72
2023/06/05 04:59:58;;;;;;;16.63;6.45;;;;;;;11.39;100.00;101697.28;5007157;28;20082;-72
2023/06/05 05:02:26;;;;;;;15.18;6.50;;;;;;;11.39;100.00;101700.88;5011590;28;20050;-76
2023/06/05 05:04:52;;;;;;;18.17;7.07;;;;;;;11.41;100.00;101706.81;5007517;28;20093;-72
2023/06/05 05:07:22;;;;;;;16.33;6.45;;;;;;;11.45;100.00;101707.59;5014467;28;20152;-74
2023/06/05 05:09:48;;;;;;;15.18;6.25;;;;;;;11.54;100.00;101707.19;5005844;28;20077;-75
2023/06/05 05:12:15;;;;;;;17.35;6.25;;;;;;;11.58;100.00;101703.22;5005911;28;20046;-73
2023/06/05 05:14:42;;;;;;;17.83;6.40;;;;;;;11.67;100.00;101709.19;5007098;28;20053;-73
2023/06/05 05:17:09;;;;;;;17.02;6.63;;;;;;;11.68;100.00;101705.19;5008120;28;20053;-74
2023/06/05 05:19:39;;;;;;;18.30;6.93;;;;;;;11.75;100.00;101702.38;5007377;28;20046;-73
2023/06/05 05:22:05;;;;;;;16.77;6.97;;;;;;;11.77;100.00;101700.00;5005603;28;20062;-73
2023/06/05 05:24:32;;;;;;;16.00;6.68;;;;;;;11.87;100.00;101712.31;5006229;28;20046;-73
2023/06/05 05:27:00;;;;;;;17.52;6.13;;;;;;;11.90;100.00;101711.50;5015592;28;20053;-73
2023/06/05 05:29:27;;;;;;;19.45;6.93;;;;;;;11.95;100.00;101716.69;5016288;28;20507;-74
2023/06/05 05:31:54;;;;;;;14.88;6.60;;;;;;;12.05;100.00;101713.03;5031908;28;20058;-74
2023/06/05 05:34:21;;;;;;;16.50;7.18;;;;;;;12.08;100.00;101715.81;5005622;28;20542;-74
2023/06/05 05:36:47;;;;;;;19.20;6.85;;;;;;;12.05;100.00;101711.06;4998715;28;20082;-72
2023/06/05 05:39:14;;;;;;;26.48;7.30;;;;;;;12.06;100.00;101709.84;5000687;28;20165;-74
2023/06/05 05:41:41;;;;;;;21.15;7.85;;;;;;;12.16;100.00;101716.59;5013615;28;20104;-73
2023/06/05 05:44:07;;;;;;;16.58;6.20;;;;;;;12.23;100.00;101714.53;5018251;28;20161;-73
2023/06/05 05:46:34;;;;;;;15.25;6.55;;;;;;;12.31;100.00;101721.69;5011174;28;20112;-74
2023/06/05 05:49:01;;;;;;;16.10;6.80;;;;;;;12.37;100.00;101720.13;5014503;28;20135;-73
2023/06/05 05:51:27;;;;;;;18.58;7.07;;;;;;;12.46;100.00;101725.25;5008239;28;20470;-73
2023/06/05 05:53:54;;;;;;;19.98;7.63;;;;;;;12.49;100.00;101728.00;5017785;28;20111;-73
2023/06/05 05:56:20;;;;;;;25.33;9.45;;;;;;;12.50;100.00;101717.66;5005090;28;20060;-73
2023/06/05 05:58:47;;;;;;;20.70;7.70;;;;;;;12.52;100.00;101724.41;5013584;28;20076;-73
2023/06/05 06:01:13;;;;;;;18.20;6.63;;;;;;;12.57;100.00;101729.56;5003997;28;20085;-74
2023/06/05 06:03:40;;;;;;;18.85;7.55;;;;;;;12.62;100.00;101725.53;5010546;28;20636;-71
2023/06/05 06:06:07;;;;;;;18.50;6.38;;;;;;;12.67;100.00;101721.53;5015509;28;20049;-71
2023/06/05 06:08:34;;;;;;;16.08;6.72;;;;;;;12.75;100.00;101720.28;5006439;28;20045;-72
2023/06/05 06:11:03;;;;;;;17.42;6.90;;;;;;;12.81;100.00;101721.44;5006086;28;20506;-69
2023/06/05 06:13:30;;;;;;;20.30;6.95;;;;;;;12.87;100.00;101726.19;5005475;28;20072;-72
2023/06/05 06:15:57;;;;;;;19.42;7.28;;;;;;;12.92;100.00;101725.75;5019338;28;20514;-72
2023/06/05 06:18:23;;;;;;;20.33;6.88;;;;;;;12.90;100.00;101724.59;5015071;28;20045;-72
2023/06/05 06:20:50;;;;;;;19.95;7.68;;;;;;;12.90;100.00;101724.59;5026272;28;20496;-66
2023/06/05 06:23:16;;;;;;;17.05;7.15;;;;;;;12.95;100.00;101730.53;5014061;28;20076;-71
2023/06/05 06:25:43;;;;;;;20.02;8.40;;;;;;;13.04;100.00;101727.28;5032743;28;20045;-71
2023/06/05 06:28:10;;;;;;;16.65;6.82;;;;;;;13.04;100.00;101718.91;5012691;28;20073;-71
2023/06/05 06:30:36;;;;;;;17.40;7.68;;;;;;;13.09;100.00;101716.44;5009543;28;20916;-69
2023/06/05 06:33:04;;;;;;;17.15;7.50;;;;;;;13.17;100.00;101720.00;5011377;28;20526;-70
2023/06/05 06:35:34;;;;;;;17.08;7.55;;;;;;;13.25;100.00;101722.31;5015135;28;20053;-68
2023/06/05 06:38:01;;;;;;;19.63;7.63;;;;;;;13.33;100.00;101723.06;5009332;28;20357;-69
2023/06/05 06:40:28;;;;;;;18.10;7.57;;;;;;;13.41;100.00;101718.97;5017090;28;20045;-69
2023/06/05 06:42:55;;;;;;;18.25;7.43;;;;;;;13.44;100.00;101729.38;5020575;28;20830;-72
2023/06/05 06:45:22;;;;;;;16.05;7.45;;;;;;;13.47;100.00;101722.94;5009926;28;20050;-69
2023/06/05 06:47:48;;;;;;;20.17;7.55;;;;;;;13.58;100.00;101729.22;5009613;28;20061;-73
2023/06/05 06:50:33;;;;;;;17.42;7.40;;;;;;;13.65;100.00;101726.34;5007713;28;20111;-70
2023/06/05 06:52:59;;;;;;;17.77;7.20;;;;;;;13.74;100.00;101735.84;5022315;28;20053;-72
2023/06/05 06:55:26;;;;;;;16.13;7.43;;;;;;;13.81;100.00;101729.41;5007028;28;20088;-69
2023/06/05 06:57:53;;;;;;;18.00;7.63;;;;;;;13.90;100.00;101732.47;5004138;28;20782;-72
2023/06/05 07:00:20;;;;;;;17.73;7.25;;;;;;;13.98;100.00;101731.97;5008998;28;20107;-69
2023/06/05 07:02:47;;;;;;;16.83;7.45;;;;;;;14.07;100.00;101737.06;5009006;28;20137;-70
2023/06/05 07:05:14;;;;;;;18.98;8.13;;;;;;;14.13;100.00;101735.41;5009993;28;20060;-72
2023/06/05 07:07:41;;;;;;;20.33;7.35;;;;;;;14.16;100.00;101731.78;5006046;28;20397;-70
2023/06/05 07:10:08;;;;;;;20.13;6.88;;;;;;;14.23;100.00;101728.91;5006041;28;20053;-68
2023/06/05 07:12:35;;;;;;;15.68;7.05;;;;;;;14.35;100.00;101739.56;5007567;28;20054;-69
2023/06/05 07:15:02;;;;;;;16.15;7.00;;;;;;;14.40;100.00;101739.06;5005234;28;20050;-68
2023/06/05 07:17:30;;;;;;;16.00;7.07;;;;;;;14.44;100.00;101737.03;5012219;28;20073;-71
2023/06/05 07:19:57;;;;;;;17.38;6.65;;;;;;;14.53;100.00;101734.53;5009799;28;20050;-71
2023/06/05 07:22:28;;;;;;;21.08;7.32;;;;;;;14.62;100.00;101743.22;5017159;28;20107;-71
2023/06/05 07:24:55;;;;;;;16.58;7.25;;;;;;;14.69;100.00;101741.09;5002929;28;20058;-71
2023/06/05 07:27:22;;;;;;;21.23;7.18;;;;;;;14.73;100.00;101741.84;5009065;28;20085;-69
2023/06/05 07:29:49;;;;;;;18.85;7.38;;;;;;;14.83;100.00;101735.28;5005886;28;20116;-72
2023/06/05 07:32:17;;;;;;;17.55;7.10;;;;;;;14.91;100.00;101739.59;5006829;28;20085;-72
2023/06/05 07:34:44;;;;;;;16.25;6.88;;;;;;;15.02;100.00;101736.59;5011546;28;20741;-69
2023/06/05 07:37:10;;;;;;;15.70;6.95;;;;;;;15.14;100.00;101736.03;5012615;28;20118;-72
2023/06/05 07:39:37;;;;;;;17.80;8.25;;;;;;;15.26;100.00;101729.03;5006515;28;20053;-70
2023/06/05 07:42:05;;;;;;;17.95;7.35;;;;;;;15.29;100.00;101731.00;5008478;28;20487;-69
2023/06/05 07:44:32;;;;;;;20.10;7.15;;;;;;;15.37;100.00;101730.47;5022249;28;20052;-71
2023/06/05 07:46:58;;;;;;;19.10;6.35;;;;;;;15.45;100.00;101728.31;5019877;28;20114;-69
2023/06/05 07:49:25;;;;;;;15.23;6.93;;;;;;;15.61;100.00;101734.03;5008530;28;20095;-73
2023/06/05 07:51:51;;;;;;;18.48;7.72;;;;;;;15.76;100.00;101726.97;5022057;28;20049;-73
2023/06/05 07:54:19;;;;;;;17.27;6.63;;;;;;;15.85;100.00;101718.78;5028605;28;20057;-72
2023/06/05 07:56:48;;;;;;;18.30;7.00;;;;;;;15.96;100.00;101708.94;5003229;28;20088;-72
2023/06/05 07:59:16;;;;;;;18.42;7.13;;;;;;;16.05;100.00;101714.78;5006266;28;20053;-73
2023/06/05 08:01:45;;;;;;;14.38;6.38;;;;;;;16.20;100.00;101721.66;5007420;28;20049;-71
2023/06/05 08:04:11;;;;;;;17.33;6.22;;;;;;;16.36;100.00;101724.56;5014443;28;20141;-74
2023/06/05 08:06:39;;;;;;;16.73;6.40;;;;;;;16.49;100.00;101730.31;5014255;28;20146;-72
2023/06/05 08:09:09;;;;;;;16.05;7.40;;;;;;;16.60;100.00;101731.66;5008848;28;20061;-73
2023/06/05 08:11:37;;;;;;;19.10;6.72;;;;;;;16.73;100.00;101726.16;5006900;28;20046;-73
2023/06/05 08:14:06;;;;;;;18.08;6.05;;;;;;;16.85;100.00;101723.44;5014077;28;20713;-72
2023/06/05 08:16:32;;;;;;;18.00;6.68;;;;;;;16.97;100.00;101719.97;5019640;28;20118;-73
2023/06/05 08:19:00;;;;;;;16.83;6.18;;;;;;;17.11;100.00;101724.47;5009359;28;20053;-71
2023/06/05 08:21:26;;;;;;;13.82;5.55;;;;;;;17.13;100.00;101722.03;5005076;28;20449;-74
2023/06/05 08:23:53;;;;;;;16.42;7.50;;;;;;;17.25;100.00;101719.31;5008763;28;20137;-74
2023/06/05 08:26:21;;;;;;;14.93;6.38;;;;;;;17.37;100.00;101720.63;5006241;28;20570;-71
2023/06/05 08:28:49;;;;;;;15.90;5.93;;;;;;;17.47;100.00;101713.94;5008632;28;20053;-77
2023/06/05 08:31:16;;;;;;;13.95;4.93;;;;;;;17.54;100.00;101721.38;5009569;28;20060;-73
2023/06/05 08:33:43;;;;;;;15.80;5.55;;;;;;;17.61;100.00;101707.94;5008261;28;20128;-71
2023/06/05 08:36:09;;;;;;;14.52;5.10;;;;;;;17.70;100.00;101704.47;5015200;28;20570;-73
2023/06/05 08:38:36;;;;;;;14.48;5.57;;;;;;;17.80;100.00;101704.19;5007477;28;20133;-69
2023/06/05 08:41:07;;;;;;;18.98;6.78;;;;;;;17.94;100.00;101705.84;5007351;28;20050;-70
2023/06/05 08:43:38;;;;;;;14.57;5.28;;;;;;;18.02;100.00;101707.25;5004348;28;20054;-67
2023/06/05 08:46:06;;;;;;;13.18;5.63;;;;;;;18.13;100.00;101702.09;5016077;28;20057;-71
2023/06/05 08:48:40;;;;;;;16.05;5.10;;;;;;;18.30;100.00;101700.78;5003683;28;20516;-73
2023/06/05 08:51:15;;;;;;;16.05;5.20;;;;;;;18.45;100.00;101699.13;5007091;28;20057;-72
2023/06/05 08:53:56;;;;;;;16.17;4.85;;;;;;;18.57;100.00;101698.34;5011871;28;20049;-71
2023/06/05 08:56:24;;;;;;;13.48;5.43;;;;;;;18.74;100.00;101705.50;4999021;28;20060;-73
2023/06/05 08:58:51;;;;;;;14.32;5.90;;;;;;;18.74;100.00;101697.81;5010146;28;20567;-69
2023/06/05 09:01:19;;;;;;;13.98;4.53;;;;;;;18.85;100.00;101700.31;5005497;28;20049;-70
2023/06/05 09:03:46;;;;;;;13.32;5.28;;;;;;;18.97;100.00;101707.97;5007250;28;20056;-71
2023/06/05 09:06:12;;;;;;;14.25;5.05;;;;;;;19.08;100.00;101700.75;5013345;28;20057;-71
2023/06/05 09:08:40;;;;;;;12.73;5.32;;;;;;;19.15;100.00;101691.25;5012376;28;20050;-72
2023/06/05 09:11:25;;;;;;;11.45;4.90;;;;;;;19.30;100.00;101689.53;5022649;28;20053;-67
2023/06/05 09:13:52;;;;;;;16.07;4.83;;;;;;;19.47;100.00;101688.94;5026964;28;20134;-71
2023/06/05 09:16:20;;;;;;;10.98;4.75;;;;;;;19.50;100.00;101693.69;5011830;28;20510;-71
2023/06/05 09:18:58;;;;;;;11.75;4.97;;;;;;;19.50;100.00;101687.25;5007190;28;20050;-72
2023/06/05 09:21:30;;;;;;;13.93;5.68;;;;;;;19.57;100.00;101687.78;5005547;28;20081;-70
2023/06/05 09:24:17;;;;;;;11.60;4.35;;;;;;;19.66;100.00;101678.63;5007963;28;20058;-71
2023/06/05 09:26:53;;;;;;;13.32;4.75;;;;;;;19.77;100.00;101675.44;5011729;28;20054;-73
2023/06/05 09:29:21;;;;;;;13.98;5.15;;;;;;;19.84;100.00;101673.13;5009062;28;20831;-70
2023/06/05 09:31:48;;;;;;;13.02;4.80;;;;;;;19.92;100.00;101668.00;5010682;28;20073;-70
2023/06/05 09:34:22;;;;;;;14.98;4.63;;;;;;;20.04;100.00;101676.41;5017941;28;20057;-70
2023/06/05 09:36:48;;;;;;;9.32;3.97;;;;;;;20.12;100.00;101669.25;5010898;28;20081;-70
2023/06/05 09:39:16;;;;;;;14.25;5.15;;;;;;;20.19;100.00;101669.00;5010110;28;20675;-71
2023/06/05 09:41:44;;;;;;;11.55;4.00;;;;;;;20.33;100.00;101664.84;5019300;28;20054;-70
2023/06/05 09:44:11;;;;;;;10.13;4.20;;;;;;;20.39;100.00;101672.25;5009536;28;20095;-69
2023/06/05 09:46:49;;;;;;;12.40;4.50;;;;;;;20.48;100.00;101663.06;5015289;28;20095;-72
2023/06/05 09:49:16;;;;;;;9.48;3.70;;;;;;;20.53;100.00;101670.94;5007267;28;20412;-70
2023/06/05 09:51:43;;;;;;;16.48;4.32;;;;;;;20.60;100.00;101671.44;5010722;28;20568;-71
2023/06/05 09:54:11;;;;;;;10.60;4.15;;;;;;;20.74;100.00;101667.25;5010775;28;20046;-70
2023/06/05 09:56:41;;;;;;;8.07;3.65;;;;;;;20.85;100.00;101659.91;5026141;28;20773;-70
2023/06/05 09:59:09;;;;;;;11.82;3.72;;;;;;;20.99;100.00;101665.00;5020843;28;20467;-68
2023/06/05 10:01:36;;;;;;;12.00;4.80;;;;;;;21.08;100.00;101661.41;5024151;28;20481;-70
2023/06/05 10:04:08;;;;;;;12.13;4.20;;;;;;;21.17;100.00;101653.72;5010074;28;20108;-75
2023/06/05 10:06:36;;;;;;;9.30;4.43;;;;;;;21.28;100.00;101658.94;5018887;28;20057;-71
2023/06/05 10:09:03;;;;;;;12.27;4.28;;;;;;;21.34;100.00;101652.22;5005672;28;20064;-68
2023/06/05 10:11:30;;;;;;;12.43;4.05;;;;;;;21.50;100.00;101654.72;5019346;28;20053;-72
2023/06/05 10:13:59;;;;;;;11.95;5.05;;;;;;;21.61;100.00;101652.19;5016568;28;20149;-69
2023/06/05 10:16:30;;;;;;;9.77;4.22;;;;;;;21.66;100.00;101636.66;5008453;28;20108;-71
2023/06/05 10:18:59;;;;;;;12.60;4.28;;;;;;;21.77;100.00;101640.59;5011001;28;20045;-71
2023/06/05 10:21:26;;;;;;;11.70;4.07;;;;;;;21.84;100.00;101640.25;5010609;28;20050;-70
2023/06/05 10:24:00;;;;;;;11.98;3.78;;;;;;;22.00;100.00;101645.59;5013418;28;20042;-70
2023/06/05 10:27:06;;;;;;;6.80;3.47;;;;;;;22.12;96.93;101635.34;5005344;28;20119;-71
2023/06/05 10:30:06;;;;;;;11.80;3.65;;;;;;;22.22;94.44;101639.72;4988134;28;20072;-69
2023/06/05 10:32:52;;;;;;;8.40;3.72;;;;;;;22.37;89.14;101643.47;5008366;28;20479;-70
2023/06/05 10:36:00;;;;;;;11.90;4.63;;;;;;;22.49;92.18;101639.66;5008172;28;20046;-71
2023/06/05 10:38:28;;;;;;;10.05;3.55;;;;;;;22.53;89.63;101628.16;5008649;28;20104;-69
2023/06/05 10:40:58;;;;;;;10.68;3.58;;;;;;;22.56;92.21;101627.19;5025911;28;20405;-71
2023/06/05 10:43:32;;;;;;;12.02;3.95;;;;;;;22.61;90.53;101624.50;5002283;28;20054;-70
2023/06/05 10:46:00;;;;;;;11.90;3.95;;;;;;;22.81;91.42;101632.44;5015223;28;20056;-70
2023/06/05 10:49:07;;;;;;;13.07;3.85;;;;;;;22.81;89.72;101632.44;5013948;28;20105;-70
2023/06/05 10:51:40;;;;;;;8.98;3.30;;;;;;;23.03;87.90;101627.28;5000776;28;20778;-70
2023/06/05 10:54:08;;;;;;;13.38;4.15;;;;;;;23.09;86.35;101631.03;5018713;28;20053;-69
2023/06/05 10:57:01;;;;;;;14.35;4.05;;;;;;;23.16;82.39;101627.84;5016268;28;20045;-69
2023/06/05 10:59:36;;;;;;;9.43;4.72;;;;;;;23.33;82.46;101623.31;5011848;28;20600;-69
2023/06/05 11:02:06;;;;;;;9.85;3.60;;;;;;;23.50;85.70;101624.44;5002393;28;20057;-70
2023/06/05 11:04:47;;;;;;;9.95;3.58;;;;;;;23.71;86.06;101626.16;5011636;28;20675;-70
2023/06/05 11:07:16;;;;;;;11.20;4.85;;;;;;;23.78;75.42;101614.41;5016773;28;20511;-70
2023/06/05 11:10:15;;;;;;;10.45;4.38;;;;;;;23.82;73.56;101624.31;5001385;28;20049;-69
2023/06/05 11:12:42;;;;;;;12.60;5.10;;;;;;;24.00;64.83;101609.91;5003080;28;20053;-70
2023/06/05 11:15:33;;;;;;;11.82;4.72;;;;;;;24.17;64.36;101601.72;5003474;28;20444;-70
2023/06/05 11:18:26;;;;;;;11.18;4.00;;;;;;;24.41;67.04;101597.47;5004607;28;20855;-70
2023/06/05 11:20:53;;;;;;;11.27;3.97;;;;;;;24.70;68.18;101599.47;5007509;28;21000;-71